Impacts TAF Board INFO
FOR SITUATIONAL AWARENESS. NOT TO BE USED FOR FLIGHT PLANNING PURPOSES.
IDs:

KCLE - Cleveland/Hopkins In, OH, US

Issued at 0303 UTC 12 Dec 2017
Updated at 0448 UTC 12 Dec 2017
Potential Impact None Slight Moderate High
Time<<12/17Z 12/18Z 12/19Z 12/20Z 12/21Z 12/22Z 12/23Z 13/00Z 13/01Z 13/02Z 13/03Z 13/04Z 13/05Z>>
Type PRVL PRVL PRVL PRVL PRVL PRVL PRVL PRVL PRVL PRVL PRVL PRVL PRVL
VIS 5 5 5 5 5 5 5 5 5 5 5 5 5
CIG 20 20 20 20 20 20 20 20 20 20 20 20 20
Cover OVC OVC OVC OVC OVC OVC OVC OVC OVC OVC OVC OVC OVC
FltCat MVFR MVFR MVFR MVFR MVFR MVFR MVFR MVFR MVFR MVFR MVFR MVFR MVFR
WX -SHSN -SHSN -SHSN -SHSN -SHSN -SHSN -SHSN -SHSN -SHSN -SHSN -SHSN -SHSN -SHSN
WDir 300 300 300 300 300 300 300 300 300 300 300 300 300
WSpd 22 22 22 22 22 22 22 22 22 22 22 22 22
WGst 32 32 32 32 32 32 32 32 32 32 32 32 32

Raw TAF
KCLE 120303Z 1203/1306 15005KT P6SM BKN060
  FM120500 VRB05KT P6SM -SN SCT035 OVC060
  TEMPO 1205/1207 3SM -SN BKN025
  FM120700 VRB05KT 1 1/2SM -SN SCT008 OVC015
  FM121100 30020G30KT 2SM -SHSN OVC015
  FM121400 30022G32KT 5SM -SHSN OVC020


METAR Board
Radar Display
Forecast Discussion

FOR SITUATIONAL AWARENESS. NOT TO BE USED FOR FLIGHT PLANNING PURPOSES.